createdAt,value
2023-05-10T00:01:02.796Z,11.1
2023-05-10T00:02:17.274Z,11
2023-05-10T00:03:31.735Z,11
2023-05-10T00:04:46.208Z,10.9
2023-05-10T00:06:00.687Z,10.9
2023-05-10T00:07:15.136Z,10.8
2023-05-10T00:08:29.605Z,10.8
2023-05-10T00:09:44.072Z,10.9
2023-05-10T00:10:58.555Z,10.9
2023-05-10T00:12:13.010Z,10.9
2023-05-10T00:13:26.616Z,10.9
2023-05-10T00:14:41.070Z,10.9
2023-05-10T00:15:55.540Z,11
2023-05-10T00:17:10.011Z,11
2023-05-10T00:18:24.494Z,10.9
2023-05-10T00:19:38.954Z,11
2023-05-10T00:20:53.426Z,11
2023-05-10T00:22:07.891Z,11
2023-05-10T00:23:22.345Z,10.9
2023-05-10T00:24:36.824Z,10.9
2023-05-10T00:27:05.758Z,10.9
2023-05-10T00:28:20.234Z,10.9
2023-05-10T00:29:34.696Z,10.9
2023-05-10T00:30:49.160Z,10.9
2023-05-10T00:32:03.635Z,10.9
2023-05-10T00:33:17.224Z,10.9
2023-05-10T00:34:31.697Z,10.9
2023-05-10T00:35:46.165Z,10.9
2023-05-10T00:37:00.631Z,10.9
2023-05-10T00:38:15.094Z,10.9
2023-05-10T00:39:29.569Z,10.9
2023-05-10T00:40:44.026Z,10.9
2023-05-10T00:41:58.502Z,10.8
2023-05-10T00:43:12.972Z,10.8
2023-05-10T00:44:27.434Z,10.8
2023-05-10T00:45:41.906Z,10.8
2023-05-10T00:46:56.379Z,10.8
2023-05-10T00:48:10.848Z,10.7
2023-05-10T00:49:25.310Z,10.8
2023-05-10T00:50:39.779Z,10.8
2023-05-10T00:51:54.254Z,10.7
2023-05-10T00:53:08.724Z,10.8
2023-05-10T00:54:23.186Z,10.8
2023-05-10T00:55:36.764Z,10.8
2023-05-10T00:56:51.250Z,10.8
2023-05-10T00:58:05.708Z,10.8
2023-05-10T00:59:20.165Z,10.8
2023-05-10T01:00:34.665Z,10.8
2023-05-10T01:01:49.117Z,10.8
2023-05-10T01:03:03.580Z,10.8
2023-05-10T01:04:18.036Z,10.8
2023-05-10T01:05:32.515Z,10.8
2023-05-10T01:06:46.985Z,10.8
2023-05-10T01:08:01.462Z,10.8
2023-05-10T01:09:15.929Z,10.8
2023-05-10T01:10:30.390Z,10.8
2023-05-10T01:11:44.864Z,10.8
2023-05-10T01:12:58.435Z,10.8
2023-05-10T01:14:12.905Z,10.8
2023-05-10T01:15:27.381Z,10.8
2023-05-10T01:16:41.840Z,10.8
2023-05-10T01:17:56.317Z,10.8
2023-05-10T01:20:25.262Z,10.8
2023-05-10T01:21:39.725Z,10.8
2023-05-10T01:22:54.195Z,10.8
2023-05-10T01:25:23.130Z,10.8
2023-05-10T01:26:37.593Z,10.8
2023-05-10T01:27:52.056Z,10.8
2023-05-10T01:29:06.540Z,10.8
2023-05-10T01:30:21.012Z,10.8
2023-05-10T01:31:35.472Z,10.8
2023-05-10T01:32:49.928Z,10.8
2023-05-10T01:34:03.528Z,10.8
2023-05-10T01:35:17.992Z,10.7
2023-05-10T01:36:32.458Z,10.8
2023-05-10T01:37:46.928Z,10.7
2023-05-10T01:39:01.404Z,10.7
2023-05-10T01:40:15.856Z,10.7
2023-05-10T01:41:30.335Z,10.7
2023-05-10T01:42:44.801Z,10.6
2023-05-10T01:45:13.751Z,10.6
2023-05-10T01:46:28.198Z,10.6
2023-05-10T01:47:42.681Z,10.5
2023-05-10T01:48:57.136Z,10.5
2023-05-10T01:50:10.735Z,10.5
2023-05-10T01:51:25.209Z,10.5
2023-05-10T01:52:39.670Z,10.5
2023-05-10T01:55:08.596Z,10.5
2023-05-10T01:56:23.072Z,10.5
2023-05-10T01:57:37.546Z,10.5
2023-05-10T01:58:52.008Z,10.5
2023-05-10T02:01:20.960Z,10.4
2023-05-10T02:02:34.553Z,10.4
2023-05-10T02:03:49.030Z,10.5
2023-05-10T02:05:02.604Z,10.4
2023-05-10T02:06:17.105Z,10.4
2023-05-10T02:07:31.555Z,10.4
2023-05-10T02:08:46.019Z,10.4
2023-05-10T02:11:14.958Z,10.4
2023-05-10T02:12:29.412Z,10.4
2023-05-10T02:13:43.892Z,10.3
2023-05-10T02:14:58.383Z,10.3
2023-05-10T02:16:12.839Z,10.3
2023-05-10T02:17:27.290Z,10.3
2023-05-10T02:18:41.755Z,10.3
2023-05-10T02:19:56.227Z,10.3
2023-05-10T02:21:10.720Z,10.3
2023-05-10T02:22:25.174Z,10.3
2023-05-10T02:23:38.779Z,10.3
2023-05-10T02:24:53.250Z,10.3
2023-05-10T02:26:07.693Z,10.2
2023-05-10T02:27:22.167Z,10.2
2023-05-10T02:29:51.097Z,10.2
2023-05-10T02:31:05.562Z,10.2
2023-05-10T02:32:20.028Z,10.2
2023-05-10T02:33:34.498Z,10.1
2023-05-10T02:34:48.994Z,10
2023-05-10T02:36:03.449Z,10
2023-05-10T02:37:17.910Z,10
2023-05-10T02:38:31.543Z,9.9
2023-05-10T02:39:45.118Z,9.9
2023-05-10T02:40:59.581Z,9.9
2023-05-10T02:42:14.069Z,9.8
2023-05-10T02:43:28.521Z,9.8
2023-05-10T02:44:42.972Z,9.7
2023-05-10T02:45:57.442Z,9.8
2023-05-10T02:47:11.923Z,9.7
2023-05-10T02:48:26.377Z,9.7
2023-05-10T02:49:40.874Z,9.7
2023-05-10T02:50:55.315Z,9.7
2023-05-10T02:52:09.789Z,9.7
2023-05-10T02:53:24.270Z,9.7
2023-05-10T02:54:38.733Z,9.6
2023-05-10T02:55:53.185Z,9.7
2023-05-10T02:57:06.727Z,9.6
2023-05-10T02:58:21.143Z,9.6
2023-05-10T02:59:35.582Z,9.6
2023-05-10T03:00:49.970Z,9.6
2023-05-10T03:03:18.793Z,9.6
2023-05-10T03:04:33.223Z,9.6
2023-05-10T03:05:47.638Z,9.6
2023-05-10T03:08:16.469Z,9.6
2023-05-10T03:09:30.875Z,9.5
2023-05-10T03:10:45.305Z,9.5
2023-05-10T03:11:59.721Z,9.5
2023-05-10T03:13:13.266Z,9.5
2023-05-10T03:14:27.657Z,9.5
2023-05-10T03:15:42.072Z,9.5
2023-05-10T03:16:56.484Z,9.5
2023-05-10T03:18:10.903Z,9.5
2023-05-10T03:19:25.338Z,9.5
2023-05-10T03:20:39.726Z,9.6
2023-05-10T03:21:54.163Z,9.6
2023-05-10T03:23:08.567Z,9.6
2023-05-10T03:24:22.984Z,9.6
2023-05-10T03:25:37.386Z,9.6
2023-05-10T03:26:51.807Z,9.6
2023-05-10T03:28:06.229Z,9.6
2023-05-10T03:29:19.744Z,9.6
2023-05-10T03:30:34.173Z,9.6
2023-05-10T03:31:48.606Z,9.5
2023-05-10T03:33:02.986Z,9.5
2023-05-10T03:34:17.422Z,9.5
2023-05-10T03:35:31.820Z,9.6
2023-05-10T03:36:46.238Z,9.6
2023-05-10T03:38:00.662Z,9.6
2023-05-10T03:39:15.069Z,9.6
2023-05-10T03:40:29.482Z,9.6
2023-05-10T03:41:43.900Z,9.6
2023-05-10T03:42:58.299Z,9.7
2023-05-10T03:44:12.727Z,9.7
2023-05-10T03:45:27.131Z,9.6
2023-05-10T03:46:40.671Z,9.6
2023-05-10T03:47:55.081Z,9.6
2023-05-10T03:49:09.512Z,9.6
2023-05-10T03:50:23.928Z,9.6
2023-05-10T03:52:52.757Z,9.6
2023-05-10T03:54:07.170Z,9.6
2023-05-10T03:56:35.989Z,9.6
2023-05-10T03:57:50.399Z,9.7
2023-05-10T03:59:04.836Z,9.7
2023-05-10T04:00:19.239Z,9.7
2023-05-10T04:01:33.653Z,9.7
2023-05-10T04:02:48.064Z,9.7
2023-05-10T04:04:01.615Z,9.7
2023-05-10T04:05:16.020Z,9.7
2023-05-10T04:06:30.444Z,9.7
2023-05-10T04:07:44.857Z,9.7
2023-05-10T04:08:59.261Z,9.8
2023-05-10T04:10:13.675Z,9.8
2023-05-10T04:11:28.077Z,9.8
2023-05-10T04:12:42.490Z,9.8
2023-05-10T04:13:56.916Z,9.9
2023-05-10T04:15:11.322Z,9.9
2023-05-10T04:17:40.154Z,10
2023-05-10T04:18:54.573Z,10.1
2023-05-10T04:20:08.096Z,10.2
2023-05-10T04:21:22.514Z,10.3
2023-05-10T04:22:36.947Z,10.3
2023-05-10T04:23:51.365Z,10.4
2023-05-10T04:25:05.762Z,10.4
2023-05-10T04:27:34.604Z,10.4
2023-05-10T04:28:49.009Z,10.5
2023-05-10T04:30:03.416Z,10.5
2023-05-10T04:31:17.838Z,10.6
2023-05-10T04:32:32.233Z,10.7
2023-05-10T04:33:46.671Z,10.7
2023-05-10T04:35:01.090Z,10.8
2023-05-10T04:36:14.613Z,11
2023-05-10T04:37:29.048Z,11.2
2023-05-10T04:38:43.443Z,11.4
2023-05-10T04:39:57.849Z,11.6
2023-05-10T04:41:12.271Z,11.9
2023-05-10T04:42:26.684Z,12.1
2023-05-10T04:43:41.086Z,12.3
2023-05-10T04:44:55.512Z,12.4
2023-05-10T04:46:09.910Z,12.6
2023-05-10T04:47:24.332Z,12.7
2023-05-10T04:48:38.738Z,12.8
2023-05-10T04:49:53.166Z,12.8
2023-05-10T04:51:07.582Z,12.9
2023-05-10T04:52:21.112Z,12.9
2023-05-10T04:53:35.533Z,13
2023-05-10T04:54:49.937Z,13
2023-05-10T04:57:18.763Z,13.1
2023-05-10T04:58:33.180Z,13.1
2023-05-10T04:59:47.589Z,13.2
2023-05-10T05:01:02.018Z,13.3
2023-05-10T05:02:16.423Z,13.3
2023-05-10T05:03:30.832Z,13.4
2023-05-10T05:04:45.257Z,13.5
2023-05-10T05:05:59.677Z,13.5
2023-05-10T05:07:14.089Z,13.5
2023-05-10T05:08:27.614Z,13.5
2023-05-10T05:09:42.036Z,13.6
2023-05-10T05:10:56.451Z,13.7
2023-05-10T05:12:10.870Z,13.9
2023-05-10T05:13:25.278Z,14
2023-05-10T05:14:39.673Z,14.1
2023-05-10T05:17:08.509Z,14
2023-05-10T05:18:22.939Z,14.2
2023-05-10T05:19:37.327Z,14.3
2023-05-10T05:20:51.746Z,14.3
2023-05-10T05:22:06.172Z,14.3
2023-05-10T05:23:20.568Z,14.4
2023-05-10T05:24:34.109Z,14.4
2023-05-10T05:25:48.521Z,14.5
2023-05-10T05:27:02.934Z,14.5
2023-05-10T05:28:17.341Z,14.6
2023-05-10T05:29:31.761Z,14.7
2023-05-10T05:30:46.185Z,14.7
2023-05-10T05:32:00.591Z,14.6
2023-05-10T05:33:14.996Z,14.7
2023-05-10T05:34:29.415Z,14.7
2023-05-10T05:35:43.828Z,14.8
2023-05-10T05:36:58.250Z,14.8
2023-05-10T05:38:12.651Z,14.9
2023-05-10T05:39:27.073Z,14.9
2023-05-10T05:40:40.597Z,15
2023-05-10T05:41:55.042Z,14.8
2023-05-10T05:43:09.424Z,14.8
2023-05-10T05:44:23.854Z,15
2023-05-10T05:45:38.267Z,15.2
2023-05-10T05:46:52.668Z,15.4
2023-05-10T05:48:07.091Z,15.5
2023-05-10T05:49:21.505Z,15.8
2023-05-10T05:51:50.325Z,16.1
2023-05-10T05:53:04.739Z,16
2023-05-10T05:54:19.164Z,16.1
2023-05-10T05:55:33.576Z,16.2
2023-05-10T05:56:47.105Z,16.1
2023-05-10T05:58:01.515Z,16.1
2023-05-10T05:59:15.930Z,16.2
2023-05-10T06:00:30.344Z,16.3
2023-05-10T06:01:44.759Z,16.4
2023-05-10T06:02:59.161Z,16.3
2023-05-10T06:04:13.594Z,16.2
2023-05-10T06:05:27.997Z,16.2
2023-05-10T06:06:42.402Z,16.3
2023-05-10T06:07:56.819Z,16.4
2023-05-10T06:09:11.249Z,16.4
2023-05-10T06:10:25.658Z,16.4
2023-05-10T06:11:40.062Z,16.3
2023-05-10T06:12:53.599Z,16.3
2023-05-10T06:14:08.031Z,16.4
2023-05-10T06:15:22.436Z,16.4
2023-05-10T06:16:36.843Z,16.4
2023-05-10T06:17:51.260Z,16.4
2023-05-10T06:19:05.676Z,16.5
2023-05-10T06:21:34.496Z,16.7
2023-05-10T06:22:48.908Z,16.7
2023-05-10T06:24:03.336Z,16.4
2023-05-10T06:25:17.730Z,16.4
2023-05-10T06:26:32.147Z,16.3
2023-05-10T06:27:46.560Z,16.2
2023-05-10T06:29:00.093Z,16.1
2023-05-10T06:30:14.510Z,16
2023-05-10T06:31:28.939Z,15.8
2023-05-10T06:32:43.350Z,15.7
2023-05-10T06:33:57.759Z,15.7
2023-05-10T06:35:12.176Z,15.6
2023-05-10T06:36:26.605Z,15.6
2023-05-10T06:37:41.003Z,15.6
2023-05-10T06:38:55.418Z,15.6
2023-05-10T06:40:09.827Z,15.7
2023-05-10T06:41:24.230Z,15.6
2023-05-10T06:42:38.659Z,15.6
2023-05-10T06:43:53.063Z,15.5
2023-05-10T06:46:21.020Z,15.3
2023-05-10T06:47:35.419Z,15.3
2023-05-10T06:48:49.830Z,15.3
2023-05-10T06:50:04.246Z,15.3
2023-05-10T06:51:18.665Z,15.3
2023-05-10T06:52:33.084Z,15.3
2023-05-10T06:53:47.493Z,15.3
2023-05-10T06:56:16.312Z,15.5
2023-05-10T06:57:30.732Z,15.5
2023-05-10T06:58:45.163Z,15.6
2023-05-10T06:59:59.561Z,15.6
2023-05-10T07:01:13.986Z,15.7
2023-05-10T07:02:27.514Z,15.7
2023-05-10T07:03:41.929Z,15.7
2023-05-10T07:04:56.329Z,15.8
2023-05-10T07:06:10.774Z,16
2023-05-10T07:07:25.185Z,16
2023-05-10T07:08:39.584Z,16
2023-05-10T07:09:54.002Z,16.2
2023-05-10T07:11:08.400Z,16.3
2023-05-10T07:12:22.813Z,16.3
2023-05-10T07:13:37.222Z,16.4
2023-05-10T07:14:51.661Z,16.6
2023-05-10T07:16:06.049Z,16.7
2023-05-10T07:17:20.487Z,16.8
2023-05-10T07:18:34.003Z,16.9
2023-05-10T07:19:48.427Z,16.9
2023-05-10T07:21:02.830Z,16.8
2023-05-10T07:22:17.251Z,16.9
2023-05-10T07:23:31.667Z,16.9
2023-05-10T07:24:46.068Z,17
2023-05-10T07:26:00.513Z,17.1
2023-05-10T07:27:14.926Z,17.2
2023-05-10T07:28:29.316Z,17.2
2023-05-10T07:29:43.727Z,17.3
2023-05-10T07:30:58.152Z,17.4
2023-05-10T07:32:12.556Z,17.5
2023-05-10T07:33:26.968Z,17.6
2023-05-10T07:34:40.514Z,17.5
2023-05-10T07:35:54.915Z,17.5
2023-05-10T07:37:09.335Z,17.5
2023-05-10T07:38:23.746Z,17.6
2023-05-10T07:39:38.154Z,17.5
2023-05-10T07:40:52.577Z,17.6
2023-05-10T07:42:06.985Z,17.6
2023-05-10T07:43:21.406Z,17.7
2023-05-10T07:44:35.824Z,17.7
2023-05-10T07:45:50.224Z,17.7
2023-05-10T07:47:04.646Z,17.7
2023-05-10T07:48:19.046Z,17.7
2023-05-10T07:50:47.874Z,17.7
2023-05-10T07:53:15.823Z,18
2023-05-10T07:55:44.666Z,17.8
2023-05-10T07:56:59.063Z,17.8
2023-05-10T07:58:12.633Z,17.9
2023-05-10T07:59:27.039Z,17.9
2023-05-10T08:00:40.576Z,18
2023-05-10T08:01:54.996Z,18.2
2023-05-10T08:03:09.401Z,18.3
2023-05-10T08:04:23.812Z,18.4
2023-05-10T08:05:38.220Z,18.5
2023-05-10T08:06:52.634Z,18.4
2023-05-10T08:08:07.047Z,18.4
2023-05-10T08:09:21.460Z,18.5
2023-05-10T08:10:35.025Z,18.8
2023-05-10T08:11:49.436Z,19.2
2023-05-10T08:13:03.865Z,19.4
2023-05-10T08:14:18.259Z,19.4
2023-05-10T08:15:32.689Z,19.3
2023-05-10T08:18:01.505Z,18.6
2023-05-10T08:20:29.456Z,18.2
2023-05-10T08:21:43.889Z,18
2023-05-10T08:22:57.417Z,17.9
2023-05-10T08:24:11.809Z,17.8
2023-05-10T08:25:26.243Z,17.7
2023-05-10T08:26:39.780Z,17.6
2023-05-10T08:27:54.203Z,17.5
2023-05-10T08:29:07.730Z,17.5
2023-05-10T08:30:22.153Z,17.5
2023-05-10T08:31:36.570Z,17.5
2023-05-10T08:32:50.980Z,17.4
2023-05-10T08:34:05.384Z,17.2
2023-05-10T08:35:19.809Z,17
2023-05-10T08:36:34.210Z,16.8
2023-05-10T08:37:48.641Z,16.7
2023-05-10T08:39:02.181Z,16.6
2023-05-10T08:40:15.726Z,16.6
2023-05-10T08:41:30.144Z,16.6
2023-05-10T08:42:44.547Z,16.5
2023-05-10T08:43:58.965Z,16.5
2023-05-10T08:45:13.379Z,16.3
2023-05-10T08:46:27.796Z,16.3
2023-05-10T08:47:42.215Z,16.1
2023-05-10T08:50:11.025Z,15.9
2023-05-10T08:51:25.437Z,15.9
2023-05-10T08:52:39.854Z,15.9
2023-05-10T08:55:08.697Z,15.7
2023-05-10T08:56:22.248Z,15.7
2023-05-10T08:57:36.657Z,15.6
2023-05-10T08:58:50.195Z,15.7
2023-05-10T09:01:19.025Z,15.5
2023-05-10T09:02:33.437Z,15.5
2023-05-10T09:03:47.842Z,15.5
2023-05-10T09:05:02.272Z,15.4
2023-05-10T09:06:16.671Z,15.2
2023-05-10T09:07:31.085Z,15.1
2023-05-10T09:08:44.648Z,15
2023-05-10T09:09:59.061Z,15
2023-05-10T09:13:41.412Z,14.8
2023-05-10T09:14:55.827Z,14.8
2023-05-10T09:16:10.239Z,14.7
2023-05-10T09:18:39.070Z,14.6
2023-05-10T09:19:53.490Z,14.5
2023-05-10T09:21:07.906Z,14.4
2023-05-10T09:22:22.313Z,14.3
2023-05-10T09:23:36.725Z,14.3
2023-05-10T09:24:51.135Z,14.3
2023-05-10T09:26:05.572Z,14.3
2023-05-10T09:27:19.963Z,14.4
2023-05-10T09:28:33.512Z,14.4
2023-05-10T09:29:47.918Z,14.3
2023-05-10T09:31:02.322Z,14.3
2023-05-10T09:32:16.748Z,14.3
2023-05-10T09:33:31.149Z,14.3
2023-05-10T09:34:45.566Z,14.3
2023-05-10T09:38:28.814Z,14.3
2023-05-10T09:40:57.646Z,14.3
2023-05-10T09:43:26.467Z,14.2
2023-05-10T09:44:40.877Z,14.2
2023-05-10T09:45:55.283Z,14.2
2023-05-10T09:47:09.719Z,14.1
2023-05-10T09:48:24.113Z,14
2023-05-10T09:49:37.654Z,13.9
2023-05-10T09:50:52.092Z,13.8
2023-05-10T09:53:20.905Z,13.7
2023-05-10T09:54:35.309Z,13.5
2023-05-10T09:55:49.716Z,13.5
2023-05-10T09:57:04.132Z,13.5
2023-05-10T09:58:18.544Z,13.4
2023-05-10T09:59:32.979Z,13.4
2023-05-10T10:00:47.369Z,13.4
2023-05-10T10:02:01.788Z,13.4
2023-05-10T10:03:16.195Z,13.4
2023-05-10T10:04:30.619Z,13.4
2023-05-10T10:05:45.037Z,13.3
2023-05-10T10:06:58.556Z,13.3
2023-05-10T10:08:12.990Z,13.3
2023-05-10T10:10:40.938Z,13.3
2023-05-10T10:13:09.790Z,13.3
2023-05-10T10:14:23.301Z,13.4
2023-05-10T10:15:37.730Z,13.4
2023-05-10T10:16:52.130Z,13.4
2023-05-10T10:18:06.561Z,13.5
2023-05-10T10:20:35.368Z,13.4
2023-05-10T10:23:04.212Z,13.4
2023-05-10T10:24:18.617Z,13.4
2023-05-10T10:25:33.024Z,13.4
2023-05-10T10:26:47.455Z,13.4
2023-05-10T10:28:01.864Z,13.5
2023-05-10T10:29:16.266Z,13.3
2023-05-10T10:30:30.692Z,13.4
2023-05-10T10:31:44.228Z,13.5
2023-05-10T10:32:58.636Z,13.5
2023-05-10T10:34:13.047Z,13.6
2023-05-10T10:35:27.473Z,13.6
2023-05-10T10:36:41.883Z,13.7
2023-05-10T10:37:56.282Z,13.7
2023-05-10T10:39:10.708Z,13.8
2023-05-10T10:40:25.111Z,13.8
2023-05-10T10:41:39.524Z,13.8
2023-05-10T10:42:53.948Z,13.8
2023-05-10T10:44:08.365Z,13.7
2023-05-10T10:45:22.779Z,13.7
2023-05-10T10:46:36.329Z,13.7
2023-05-10T10:47:49.862Z,13.7
2023-05-10T10:49:04.275Z,13.7
2023-05-10T10:51:33.111Z,13.5
2023-05-10T10:52:47.514Z,13.5
2023-05-10T10:54:01.929Z,13.5
2023-05-10T10:55:16.332Z,13.5
2023-05-10T10:56:30.762Z,13.5
2023-05-10T10:57:45.179Z,13.5
2023-05-10T10:58:59.590Z,13.5
2023-05-10T11:00:13.986Z,13.5
2023-05-10T11:01:28.411Z,13.5
2023-05-10T11:02:42.817Z,13.6
2023-05-10T11:03:56.360Z,13.6
2023-05-10T11:05:10.774Z,13.6
2023-05-10T11:06:25.179Z,13.6
2023-05-10T11:07:39.602Z,13.6
2023-05-10T11:08:54.007Z,13.7
2023-05-10T11:10:08.000Z,13.7
2023-05-10T11:11:22.831Z,13.7
2023-05-10T11:12:36.391Z,13.7
2023-05-10T11:13:49.920Z,13.7
2023-05-10T11:15:04.335Z,13.7
2023-05-10T11:16:18.779Z,13.7
2023-05-10T11:17:33.167Z,13.7
2023-05-10T11:18:47.582Z,13.8
2023-05-10T11:21:16.414Z,13.8
2023-05-10T11:22:30.832Z,13.8
2023-05-10T11:23:45.250Z,13.8
2023-05-10T11:24:59.649Z,13.8
2023-05-10T11:26:14.075Z,13.9
2023-05-10T11:27:28.484Z,13.9
2023-05-10T11:28:42.887Z,13.9
2023-05-10T11:29:56.427Z,13.9
2023-05-10T11:31:10.851Z,14
2023-05-10T11:32:25.269Z,14
2023-05-10T11:33:39.668Z,14.1
2023-05-10T11:34:54.092Z,14.2
2023-05-10T11:36:08.504Z,14.2
2023-05-10T11:37:22.906Z,14.2
2023-05-10T11:38:37.340Z,14.2
2023-05-10T11:39:51.731Z,14.1
2023-05-10T11:41:06.151Z,14.2
2023-05-10T11:42:20.573Z,14.1
2023-05-10T11:43:34.988Z,14.1
2023-05-10T11:44:49.385Z,14.1
2023-05-10T11:46:02.924Z,14.1
2023-05-10T11:47:17.362Z,14.1
2023-05-10T11:48:31.746Z,14.1
2023-05-10T11:49:46.160Z,14.1
2023-05-10T11:51:00.586Z,14
2023-05-10T11:52:15.002Z,14
2023-05-10T11:53:29.415Z,14
2023-05-10T11:54:43.821Z,14
2023-05-10T11:55:58.224Z,14
2023-05-10T11:57:12.656Z,14
2023-05-10T11:58:27.086Z,14
2023-05-10T11:59:41.472Z,14
2023-05-10T12:00:55.881Z,14.1
2023-05-10T12:02:09.416Z,14.1
2023-05-10T12:03:23.847Z,14.1
2023-05-10T12:04:38.241Z,14
2023-05-10T12:05:52.659Z,14
2023-05-10T12:07:07.070Z,13.9
2023-05-10T12:08:21.501Z,13.9
2023-05-10T12:09:35.900Z,14
2023-05-10T12:12:04.722Z,13.9
2023-05-10T12:13:19.137Z,13.9
2023-05-10T12:14:33.569Z,14
2023-05-10T12:15:47.963Z,14
2023-05-10T12:17:02.412Z,14
2023-05-10T12:18:15.929Z,14
2023-05-10T12:19:30.329Z,13.9
2023-05-10T12:20:44.741Z,13.9
2023-05-10T12:21:59.182Z,13.9
2023-05-10T12:23:13.582Z,13.9
2023-05-10T12:24:27.991Z,13.9
2023-05-10T12:25:42.409Z,13.9
2023-05-10T12:26:56.826Z,13.9
2023-05-10T12:28:11.228Z,13.9
2023-05-10T12:29:25.635Z,13.9
2023-05-10T12:30:40.060Z,14
2023-05-10T12:31:53.599Z,14
2023-05-10T12:33:07.997Z,14
2023-05-10T12:34:22.409Z,14
2023-05-10T12:35:36.827Z,14
2023-05-10T12:36:51.240Z,14
2023-05-10T12:38:05.649Z,14.1
2023-05-10T12:39:20.080Z,14.1
2023-05-10T12:41:48.900Z,14.2
2023-05-10T12:43:03.327Z,14.3
2023-05-10T12:44:17.718Z,14.3
2023-05-10T12:45:32.132Z,14.3
2023-05-10T12:46:46.547Z,14.3
2023-05-10T12:48:01.092Z,14.3
2023-05-10T12:49:15.516Z,14.3
2023-05-10T12:50:29.910Z,14.4
2023-05-10T12:51:44.319Z,14.4
2023-05-10T12:52:58.750Z,14.4
2023-05-10T12:54:13.144Z,14.4
2023-05-10T12:56:41.987Z,14.4
2023-05-10T12:57:56.394Z,14.4
2023-05-10T12:59:10.817Z,14.4
2023-05-10T13:00:25.230Z,14.5
2023-05-10T13:01:39.636Z,14.5
2023-05-10T13:02:54.062Z,14.5
2023-05-10T13:04:08.479Z,14.5
2023-05-10T13:05:22.879Z,14.6
2023-05-10T13:06:37.000Z,14.6
2023-05-10T13:07:51.718Z,14.6
2023-05-10T13:09:05.241Z,14.7
2023-05-10T13:10:19.676Z,14.8
2023-05-10T13:11:34.065Z,14.8
2023-05-10T13:12:48.501Z,14.9
2023-05-10T13:14:02.885Z,14.9
2023-05-10T13:15:17.322Z,14.9
2023-05-10T13:16:31.735Z,14.9
2023-05-10T13:17:46.128Z,15
2023-05-10T13:19:00.572Z,14.9
2023-05-10T13:20:14.966Z,15
2023-05-10T13:21:29.368Z,15
2023-05-10T13:22:43.781Z,15.1
2023-05-10T13:23:58.219Z,15.1
2023-05-10T13:25:11.758Z,15.1
2023-05-10T13:26:26.140Z,15.1
2023-05-10T13:27:40.560Z,15.1
2023-05-10T13:28:54.968Z,15.1
2023-05-10T13:31:23.801Z,15.1
2023-05-10T13:32:38.233Z,15.1
2023-05-10T13:33:52.652Z,15.1
2023-05-10T13:35:07.051Z,15.2
2023-05-10T13:36:21.456Z,15.2
2023-05-10T13:37:35.894Z,15.3
2023-05-10T13:38:50.306Z,15.3
2023-05-10T13:40:04.714Z,15.3
2023-05-10T13:41:19.106Z,15.3
2023-05-10T13:42:32.640Z,15.4
2023-05-10T13:43:47.054Z,15.4
2023-05-10T13:45:01.468Z,15.4
2023-05-10T13:46:15.879Z,15.4
2023-05-10T13:47:30.308Z,15.5
2023-05-10T13:48:44.722Z,15.5
2023-05-10T13:49:59.118Z,15.5
2023-05-10T13:51:13.532Z,15.5
2023-05-10T13:52:27.959Z,15.5
2023-05-10T13:53:42.368Z,15.5
2023-05-10T13:54:56.807Z,15.5
2023-05-10T13:56:11.194Z,15.5
2023-05-10T13:59:54.452Z,15.6
2023-05-10T14:01:08.849Z,15.6
2023-05-10T14:02:22.410Z,15.5
2023-05-10T14:03:36.808Z,15.6
2023-05-10T14:04:51.204Z,15.7
2023-05-10T14:06:05.616Z,15.8
2023-05-10T14:07:20.031Z,15.8
2023-05-10T14:08:34.461Z,15.9
2023-05-10T14:09:48.864Z,15.9
2023-05-10T14:11:03.295Z,15.9
2023-05-10T14:12:17.700Z,16
2023-05-10T14:13:32.000Z,16
2023-05-10T14:14:46.517Z,16
2023-05-10T14:16:00.932Z,16
2023-05-10T14:17:15.369Z,15.9
2023-05-10T14:18:29.755Z,16
2023-05-10T14:19:44.166Z,15.9
2023-05-10T14:20:58.586Z,15.9
2023-05-10T14:22:13.018Z,15.9
2023-05-10T14:23:27.432Z,15.8
2023-05-10T14:24:41.848Z,15.8
2023-05-10T14:27:10.675Z,15.8
2023-05-10T14:28:25.064Z,15.8
2023-05-10T14:29:39.490Z,15.9
2023-05-10T14:30:53.890Z,16
2023-05-10T14:32:07.422Z,16
2023-05-10T14:33:21.854Z,16
2023-05-10T14:35:50.664Z,16
2023-05-10T14:37:05.111Z,16
2023-05-10T14:38:19.496Z,16
2023-05-10T14:39:33.907Z,16
2023-05-10T14:40:48.333Z,16
2023-05-10T14:42:02.750Z,16
2023-05-10T14:43:17.152Z,16
2023-05-10T14:44:31.567Z,16
2023-05-10T14:45:45.981Z,16.1
2023-05-10T14:47:00.419Z,16.1
2023-05-10T14:48:14.827Z,16.1
2023-05-10T14:49:28.342Z,16.1
2023-05-10T14:50:42.754Z,16.2
2023-05-10T14:51:57.179Z,16.2
2023-05-10T14:53:11.587Z,16.2
2023-05-10T14:54:26.006Z,16.2
2023-05-10T14:55:40.438Z,16.1
2023-05-10T14:56:54.825Z,16.2
2023-05-10T14:58:09.242Z,16.1
2023-05-10T14:59:23.649Z,16.1
2023-05-10T15:00:38.063Z,16.1
2023-05-10T15:01:52.479Z,16.1
2023-05-10T15:03:06.900Z,16.1
2023-05-10T15:04:21.315Z,16.2
2023-05-10T15:05:35.727Z,16.2
2023-05-10T15:06:49.262Z,16.2
2023-05-10T15:08:03.681Z,16.2
2023-05-10T15:09:18.080Z,16.2
2023-05-10T15:10:32.488Z,16.2
2023-05-10T15:11:46.919Z,16.3
2023-05-10T15:13:01.333Z,16.3
2023-05-10T15:14:15.766Z,16.3
2023-05-10T15:15:30.171Z,16.3
2023-05-10T15:16:44.595Z,16.3
2023-05-10T15:17:58.978Z,16.3
2023-05-10T15:19:13.397Z,16.2
2023-05-10T15:20:27.806Z,16.2
2023-05-10T15:21:42.231Z,16.2
2023-05-10T15:22:56.640Z,16.1
2023-05-10T15:25:24.583Z,16.2
2023-05-10T15:26:38.991Z,16.2
2023-05-10T15:27:53.418Z,16.2
2023-05-10T15:29:07.834Z,16.1
2023-05-10T15:30:22.248Z,16.1
2023-05-10T15:31:36.648Z,16.1
2023-05-10T15:32:51.092Z,16.1
2023-05-10T15:34:05.489Z,16.1
2023-05-10T15:35:19.898Z,16.1
2023-05-10T15:36:34.300Z,16
2023-05-10T15:37:48.712Z,15.9
2023-05-10T15:39:03.125Z,15.7
2023-05-10T15:40:16.663Z,15.6
2023-05-10T15:41:31.075Z,15.6
2023-05-10T15:42:45.488Z,15.6
2023-05-10T15:45:14.321Z,15.5
2023-05-10T15:46:28.736Z,15.6
2023-05-10T15:47:43.179Z,15.6
2023-05-10T15:48:57.600Z,15.6
2023-05-10T15:50:11.985Z,15.5
2023-05-10T15:51:26.401Z,15.4
2023-05-10T15:52:40.832Z,15.3
2023-05-10T15:55:09.625Z,15.3
2023-05-10T15:56:23.163Z,15.3
2023-05-10T15:57:37.571Z,15.3
2023-05-10T15:58:51.985Z,15.3
2023-05-10T16:00:06.403Z,15.3
2023-05-10T16:01:20.817Z,15.3
2023-05-10T16:02:35.227Z,15.3
2023-05-10T16:03:49.653Z,15.3
2023-05-10T16:05:04.061Z,15.3
2023-05-10T16:06:18.465Z,15.2
2023-05-10T16:07:32.916Z,15.2
2023-05-10T16:08:47.300Z,15.2
2023-05-10T16:10:01.714Z,15.2
2023-05-10T16:11:16.125Z,15.1
2023-05-10T16:12:29.659Z,15.2
2023-05-10T16:13:44.084Z,15.2
2023-05-10T16:14:58.484Z,15.2
2023-05-10T16:16:12.937Z,15.2
2023-05-10T16:18:41.725Z,15.2
2023-05-10T16:19:56.166Z,15.2
2023-05-10T16:21:10.583Z,15.2
2023-05-10T16:22:24.964Z,15.2
2023-05-10T16:23:39.408Z,15.1
2023-05-10T16:24:53.791Z,15.1
2023-05-10T16:26:08.202Z,15.1
2023-05-10T16:27:22.616Z,15.1
2023-05-10T16:28:37.069Z,15.1
2023-05-10T16:29:50.572Z,15.1
2023-05-10T16:31:04.987Z,15.1
2023-05-10T16:32:19.431Z,15.2
2023-05-10T16:33:33.804Z,15.1
2023-05-10T16:34:48.238Z,15.1
2023-05-10T16:36:02.631Z,15.1
2023-05-10T16:38:31.464Z,15.2
2023-05-10T16:39:45.909Z,15.2
2023-05-10T16:40:59.410Z,15.2
2023-05-10T16:42:13.827Z,15.2
2023-05-10T16:43:28.248Z,15.2
2023-05-10T16:44:42.647Z,15.3
2023-05-10T16:45:57.060Z,15.3
2023-05-10T16:47:11.493Z,15.3
2023-05-10T16:49:40.319Z,15.2
2023-05-10T16:50:54.714Z,15.2
2023-05-10T16:52:09.135Z,15.3
2023-05-10T16:53:23.553Z,15.3
2023-05-10T16:54:37.998Z,15.2
2023-05-10T16:55:52.374Z,15.3
2023-05-10T16:57:05.941Z,15.3
2023-05-10T16:59:34.774Z,15.3
2023-05-10T17:00:48.295Z,15.3
2023-05-10T17:02:01.836Z,15.3
2023-05-10T17:03:16.274Z,15.3
2023-05-10T17:04:30.658Z,15.3
2023-05-10T17:05:45.073Z,15.3
2023-05-10T17:06:59.481Z,15.4
2023-05-10T17:08:13.905Z,15.3
2023-05-10T17:09:28.339Z,15.3
2023-05-10T17:10:42.736Z,15.3
2023-05-10T17:11:57.144Z,15.3
2023-05-10T17:13:11.555Z,15.2
2023-05-10T17:14:25.000Z,15.2
2023-05-10T17:15:39.520Z,15.2
2023-05-10T17:16:53.050Z,15.2
2023-05-10T17:18:07.471Z,15.2
2023-05-10T17:19:21.877Z,15.2
2023-05-10T17:20:36.298Z,15.2
2023-05-10T17:21:50.702Z,15.2
2023-05-10T17:24:19.549Z,15.2
2023-05-10T17:25:33.945Z,15.2
2023-05-10T17:26:48.354Z,15.2
2023-05-10T17:28:02.785Z,15.2
2023-05-10T17:29:17.225Z,15.2
2023-05-10T17:30:31.605Z,15.2
2023-05-10T17:31:46.021Z,15.1
2023-05-10T17:32:59.558Z,15.2
2023-05-10T17:34:13.970Z,15.1
2023-05-10T17:35:28.389Z,15.1
2023-05-10T17:36:42.807Z,15.1
2023-05-10T17:37:57.214Z,15.1
2023-05-10T17:39:11.622Z,15
2023-05-10T17:40:26.034Z,15
2023-05-10T17:41:40.463Z,15
2023-05-10T17:42:54.871Z,15
2023-05-10T17:44:09.279Z,15
2023-05-10T17:45:23.689Z,14.9
2023-05-10T17:46:38.115Z,14.9
2023-05-10T17:47:52.517Z,14.9
2023-05-10T17:49:06.068Z,14.9
2023-05-10T17:50:20.472Z,14.8
2023-05-10T17:51:34.879Z,14.8